Cerepovec, Russia
Current Conditions -  °F | °C
As of 9:00 AM on Sunday 23 Nov 2014 (Local Time) from ULWC Reporting Station
Haze Haze  
Wind Chill: 28°   Ceiling: 200
Heat Index: 28°   Visibility: 2.2mi
Dew Point: 28°   Wind: 0mph
Humidity: 100%   Direction: NA
Pressure: 30.42"   Gusts: NA
Location:  59.13°N, 37.88°E
Report Text: ULWC 230600Z 00000MPS 3600 BR OVC002 M02/M02 Q1030 NOSIG RMKQBB060 QFE762/1017 SC057
Loading
Personal Weather Stations






























Interactive Weather Map New forecast layout! Learn more

10-Day Weather Forecast

Advertisements
Track Severe Weather on mobile